Nearby METAR Reports

 

KHIF - Hill Afb/Ogden, Utah, USA
Distance from station: ENE 6mi, 9km
Updated: Sun, 16-May-2021 1:58am MDT
Clear
Clear
 Wind from E
Wind: E 14 mph , 22 km/h, Gust: 26 mph , 43 km/h
Temperature: 63°F , 17°C
Dew Point: 37°F , 3°C
Humidity: 39%
Barometer: 29.82 inHg , 1009.8 hPa
Clouds: Clear
Visibility: 10 miles , 16 km
2021/05/16 07:58 KHIF 160758Z AUTO 09012G23KT 10SM CLR 17/03 A2982 RMK AO2 PK WND 08032/51 SLP042 T01670027
KOGD - Ogden, Utah, USA
Distance from station: NNE 9mi, 14km
Updated: Sun, 16-May-2021 1:53am MDT
Clear
Clear
 Wind from NE
Wind: NE 12 mph , 19 km/h, Gust: 17 mph , 28 km/h
Temperature: 64°F , 18°C
Dew Point: 37°F , 3°C
Humidity: 37%
Barometer: 29.80 inHg , 1009.1 hPa
Clouds: Clear
Visibility: 10 miles , 16 km
2021/05/16 07:53 KOGD 160753Z AUTO 04010G15KT 10SM CLR 18/03 A2980 RMK AO2 SLP034 T01830028 $
 
KSLC - Salt Lake City, Utah, USA
Distance from station: SSE 21mi, 34km
Updated: Sun, 16-May-2021 1:54am MDT
Clear
Clear
 Wind from WSW
Wind: WSW 8 mph , 13 km/h
Temperature: 64°F , 18°C
Dew Point: 39°F , 4°C
Humidity: 40%
Barometer: 29.80 inHg , 1009.1 hPa
Clouds: Clear
Visibility: 10 miles , 16 km
2021/05/16 07:54 KSLC 160754Z 25007KT 10SM CLR 18/04 A2980 RMK AO2 SLP039 T01780044
KLGU - Logan, Utah, USA
Distance from station: NNE 50mi, 80km
Updated: Sun, 16-May-2021 1:51am MDT
Clear
Clear
 Wind from NNE
Wind: NNE 8 mph , 13 km/h
Temperature: 52°F , 11°C
Dew Point: 39°F , 4°C
Humidity: 62%
Barometer: 29.88 inHg , 1011.9 hPa
Clouds: Clear
Visibility: 10 miles , 16 km
2021/05/16 07:51 KLGU 160751Z AUTO 02007KT 10SM CLR 11/04 A2988 RMK AO2 SLP078 T01110044
 
K36U - Heber/Russ Mcdon, Utah, USA
Distance from station: SE 53mi, 85km
Updated: Wed, 11-Oct-2017 6:50pm MDT
NOT Current
Clear
Clear
 Wind from SSW
Wind: SSW 10 mph , 17 km/h, Gust: 18 mph , 30 km/h
Temperature: 63°F , 17°C
Dew Point: 16°F , -9°C
Humidity: 16%
Barometer: 29.87 inHg , 1011.5 hPa
Clouds: Clear
Visibility: 10 miles , 16 km
2017/10/12 00:50 K36U 120050Z AUTO 21009G16KT 10SM CLR 17/M09 A2987 RMK AO2
KEVW - Evanston, Wyoming, USA
Distance from station: ENE 55mi, 89km
Updated: Sun, 16-May-2021 1:53am MDT
Clear
Clear
 Wind from ENE
Wind: ENE 12 mph , 19 km/h
Temperature: 46°F , 8°C
Wind Chill: 40°F , 4°C
Dew Point: 36°F , 2°C
Humidity: 66%
Barometer: 30.00 inHg , 1015.9 hPa
Clouds: Clear
Visibility: 10 miles , 16 km
2021/05/16 07:53 KEVW 160753Z AUTO 06010KT 10SM CLR 08/02 A3000 RMK AO2 SLP088 T00780017 $
 
KPVU - Provo Muni, Utah, USA
Distance from station: SSE 62mi, 100km
Updated: Sun, 16-May-2021 1:56am MDT
Clear
Clear
 Wind from WSW
Wind: WSW 8 mph , 13 km/h
Temperature: 63°F , 17°C
Dew Point: 46°F , 8°C
Humidity: 56%
Barometer: 29.82 inHg , 1009.8 hPa
Clouds: Clear
Visibility: 10 miles , 16 km
2021/05/16 07:56 KPVU 160756Z AUTO 25007KT 10SM CLR 17/08 A2982 RMK AO2 SLP045 T01720083
KDPG - Dugway Prvg Grou, Utah, USA
Distance from station: SW 75mi, 121km
Updated: Fri, 14-May-2021 2:50pm MDT
NOT Current
Partly cloudy
Partly cloudy
 Wind from NNE
Wind: NNE 6 mph , 9 km/h
Temperature: 84°F , 29°C
Dew Point: 25°F , -4°C
Humidity: 11%
Barometer: 29.92 inHg , 1013.2 hPa
Clouds: Partly cloudy
Visibility: 50 miles , 80 km
Cloud details: Few Clouds 13000 ft
Few Clouds 16000 ft
Partly cloudy 25000 ft
2021/05/14 20:50 KDPG 142050Z 03005KT 50SM FEW130 FEW160 SCT250 29/M04 A2992 RMK TCU DSNT E AND W SLP074 T02901040 57025 LAST
 
KENV - Wendover (aut), Utah, USA
Distance from station: WSW 105mi, 169km
Updated: Sun, 16-May-2021 2:09am MDT
Thunderstorm, Partly cloudy
Thunderstorm, Partly cloudy
 Wind from NNW
Wind: NNW 28 mph , 44 km/h, Gust: 40 mph , 65 km/h
Temperature: 63°F , 17°C
Dew Point: 37°F , 3°C
Humidity: 39%
Barometer: 29.85 inHg , 1010.8 hPa
Summary: Thunderstorm
Clouds: Partly cloudy
Visibility: 10 miles , 16 km
Cloud details: Partly cloudy 11000 ft
2021/05/16 08:09 KENV 160809Z AUTO 33024G35KT 10SM TS SCT110 17/03 A2985 RMK AO2 PK WND 34035/0803 TSB0758RAE0757
KPUC - Price, Utah, USA
Distance from station: SE 123mi, 197km
Updated: Sun, 16-May-2021 1:53am MDT
Clear
Clear
 Wind from N
Wind: N 12 mph , 19 km/h
Temperature: 59°F , 15°C
Dew Point: 25°F , -4°C
Humidity: 27%
Barometer: 29.87 inHg , 1011.5 hPa
Clouds: Clear
Visibility: 10 miles , 16 km
2021/05/16 07:53 KPUC 160753Z AUTO 01010KT 10SM CLR 15/M04 A2987 RMK AO2 SLP037 T01501044
 
KPIH - Pocatello, Idaho, USA
Distance from station: NNW 130mi, 208km
Updated: Sun, 16-May-2021 1:53am MDT
Clear
Clear
 Wind from N
Wind: N 5 mph , 7 km/h
Temperature: 43°F , 6°C
Wind Chill: 40°F , 4°C
Dew Point: 39°F , 4°C
Humidity: 87%
Barometer: 29.93 inHg , 1013.5 hPa
Clouds: Clear
Visibility: 10 miles , 16 km
2021/05/16 07:53 KPIH 160753Z AUTO 01004KT 10SM CLR 06/04 A2993 RMK AO2 SLP120 T00610039
KBYI - Burley, Idaho, USA
Distance from station: NW 134mi, 216km
Updated: Sun, 16-May-2021 1:53am MDT
Clear
Clear
 Wind from calm
Wind: Calm
Temperature: 52°F , 11°C
Dew Point: 43°F , 6°C
Humidity: 72%
Barometer: 29.92 inHg , 1013.2 hPa
Clouds: Clear
Visibility: 10 miles , 16 km
2021/05/16 07:53 KBYI 160753Z AUTO 00000KT 10SM CLR 11/06 A2992 RMK AO2 SLP107 T01110061
 
KVEL - Vernal, Utah, USA
Distance from station: ESE 140mi, 226km
Updated: Sun, 16-May-2021 1:53am MDT
Clear
Clear
 Wind from N
Wind: N 8 mph , 13 km/h
Temperature: 59°F , 15°C
Dew Point: 36°F , 2°C
Humidity: 42%
Barometer: 29.93 inHg , 1013.5 hPa
Clouds: Clear
Visibility: 10 miles , 16 km
2021/05/16 07:53 KVEL 160753Z AUTO 35007KT 10SM CLR 15/02 A2993 RMK AO2 SLP075 T01500022 $
KBPI - Big Piney, Wyoming, USA
Distance from station: NE 145mi, 234km
Updated: Sun, 16-May-2021 1:53am MDT
Clear
Clear
 Wind from S
Wind: S 5 mph , 7 km/h
Temperature: 36°F , 2°C
Wind Chill: 32°F , 0°C
Dew Point: 34°F , 1°C
Humidity: 93%
Barometer: 30.07 inHg , 1018.3 hPa
Clouds: Clear
Visibility: 10 miles , 16 km
2021/05/16 07:53 KBPI 160753Z AUTO 19004KT 10SM CLR 02/01 A3007 RMK AO2 SLP127 T00170011